Auburn, NE

8:18 AM CDT on September 02, 2015 (GMT -0500)
The Butler's backyard | | Change Station
CLOSE
Current Station
Personal Weather Station
Location: Auburn, NE
Elevation: 1086 ft
Nearby Weather Stations

Elev 1086 ft 40.38 °N, 95.85 °W | Updated 4 minutes ago

Partly Cloudy
Partly Cloudy
72.9 °F
Feels Like 71 °F
N
6.8
Wind Variable Wind from South

Today
High -- | Low -- °F
--% Chance of Precip.
Yesterday
High -- | Low -- °F
Precip. -- in
6:51 AM 7:53 PM
Waning Gibbous, 80% visible
Pressure 29.95 in
Visibility 10.0 miles
Clouds Scattered Clouds 11000 ft
Heat Index 71 °F
Dew Point 69 °F
Humidity 88%
Rainfall 0.00 in
Snow Depth Not available.
UV 0 out of 12
Pollen 11.00 out of 12
Air Quality Not available.
Flu Activity Not available.
METAR KAFK 021255Z AUTO 16011KT 10SM SCT110 23/19 A2995 RMK AO2 LTG DSNT SE AND S T02260187
Pressure 29.95 in
Visibility 10.0 miles
Clouds Scattered Clouds 11000 ft
Heat Index 71 °F
Dew Point 69 °F
Humidity 88%
Rainfall 0.00 in
Snow Depth Not available.
UV 0 out of 12
Pollen 11.00 out of 12
Air Quality Not available.
Flu Activity Not available.
METAR KAFK 021255Z AUTO 16011KT 10SM SCT110 23/19 A2995 RMK AO2 LTG DSNT SE AND S T02260187

10-Day Weather Forecast

×

Almanac

Astronomy

Sep. 02, 2015 Rise Set
Actual Time
Civil Twilight
Nautical Twilight
Astronomical Twilight
Moon
Length of Visible Light
Length of Day
Tomorrow will be .
, % of the Moon is Illuminated

Today's Extremes

State Highs State Lows

Community

WunderPhotos

Upload Photos

1,851,750 photos uploaded!

WunderBlogs® & News

Nearby

Air Quality

  Air Quality AQ Index Pollutant
Not available.

Snow Depth

Station Depth Elevation

Earthquake Activity

City Distance Mag. Time & Date
Minimum magnitude displayed is 2.5.

Coastal Water Temperatures

Place Temperature

Stations

Nearby Weather Stations

Station Location Temp. Windchill Dew Point Humidity Wind Precip. Elev Updated Type